createdAt,value
2023-01-21T00:02:12.835Z,101940.40
2023-01-21T00:04:41.392Z,101943.60
2023-01-21T00:07:10.078Z,101945.60
2023-01-21T00:09:39.072Z,101946.60
2023-01-21T00:12:07.962Z,101947.60
2023-01-21T00:14:36.444Z,101948.00
2023-01-21T00:17:05.135Z,101946.40
2023-01-21T00:19:33.715Z,101949.00
2023-01-21T00:22:02.604Z,101953.20
2023-01-21T00:24:31.193Z,101955.20
2023-01-21T00:26:59.789Z,101950.20
2023-01-21T00:29:28.465Z,101955.60
2023-01-21T00:31:57.080Z,101960.60
2023-01-21T00:34:25.997Z,101965.40
2023-01-21T00:36:56.466Z,101963.80
2023-01-21T00:39:25.309Z,101966.80
2023-01-21T00:41:53.849Z,101962.20
2023-01-21T00:44:22.429Z,101963.60
2023-01-21T00:46:51.015Z,101961.40
2023-01-21T00:49:19.704Z,101955.20
2023-01-21T00:51:48.387Z,101948.40
2023-01-21T00:54:17.074Z,101946.20
2023-01-21T00:56:45.770Z,101942.80
2023-01-21T00:59:14.654Z,101945.80
2023-01-21T01:01:43.583Z,101940.40
2023-01-21T01:04:12.544Z,101943.00
2023-01-21T01:06:41.432Z,101941.00
2023-01-21T01:09:11.286Z,101935.00
2023-01-21T01:11:40.441Z,101932.60
2023-01-21T01:14:09.128Z,101947.00
2023-01-21T01:16:38.332Z,101952.60
2023-01-21T01:19:07.736Z,101954.40
2023-01-21T01:21:36.523Z,101956.40
2023-01-21T01:24:06.572Z,101952.40
2023-01-21T01:26:36.591Z,101951.60
2023-01-21T01:29:06.369Z,101957.40
2023-01-21T01:31:35.637Z,101958.60
2023-01-21T01:34:04.564Z,101964.60
2023-01-21T01:36:33.351Z,101964.00
2023-01-21T01:39:02.449Z,101964.60
2023-01-21T01:41:35.593Z,101968.00
2023-01-21T01:45:00.543Z,101968.20
2023-01-21T01:47:46.335Z,101979.40
2023-01-21T01:50:19.624Z,101988.00
2023-01-21T01:52:48.211Z,101972.20
2023-01-21T01:55:17.206Z,101960.00
2023-01-21T01:57:51.931Z,101964.00
2023-01-21T02:00:22.110Z,101966.40
2023-01-21T02:03:10.236Z,101966.80
2023-01-21T02:05:44.418Z,101970.20
2023-01-21T02:08:12.998Z,101970.60
2023-01-21T02:10:42.220Z,101972.20
2023-01-21T02:13:12.011Z,101977.40
2023-01-21T02:16:03.296Z,101986.20
2023-01-21T02:18:49.012Z,101982.80
2023-01-21T02:21:55.188Z,101987.60
2023-01-21T02:25:01.662Z,101975.20
2023-01-21T02:28:31.881Z,101978.20
2023-01-21T02:31:10.195Z,101973.80
2023-01-21T02:33:56.598Z,101976.20
2023-01-21T02:37:03.585Z,101984.80
2023-01-21T02:40:10.296Z,101979.00
2023-01-21T02:42:46.831Z,101978.20
2023-01-21T02:45:30.485Z,101977.20
2023-01-21T02:48:28.851Z,101979.20
2023-01-21T02:50:57.974Z,101982.20
2023-01-21T02:53:32.275Z,101986.40
2023-01-21T02:56:13.466Z,101992.00
2023-01-21T02:58:48.256Z,101998.20
2023-01-21T03:01:48.457Z,101998.00
2023-01-21T03:04:38.799Z,101995.20
2023-01-21T03:07:25.716Z,101993.60
2023-01-21T03:10:03.289Z,101995.40
2023-01-21T03:13:00.780Z,101994.20
2023-01-21T03:16:05.977Z,101994.00
2023-01-21T03:18:43.924Z,101991.40
2023-01-21T03:21:22.341Z,101995.80
2023-01-21T03:23:53.399Z,101996.60
2023-01-21T03:26:33.735Z,102000.00
2023-01-21T03:29:10.305Z,101997.40
2023-01-21T03:31:42.371Z,101997.40
2023-01-21T03:34:15.526Z,101998.80
2023-01-21T03:37:20.604Z,102001.00
2023-01-21T03:39:59.941Z,101996.80
2023-01-21T03:42:29.139Z,102002.40
2023-01-21T03:44:58.138Z,102012.20
2023-01-21T03:47:36.854Z,102013.20
2023-01-21T03:50:18.525Z,102010.80
2023-01-21T03:52:47.437Z,102012.40
2023-01-21T03:55:19.074Z,102017.00
2023-01-21T03:57:47.785Z,102018.20
2023-01-21T04:00:17.349Z,102026.80
2023-01-21T04:02:46.077Z,102025.80
2023-01-21T04:05:14.663Z,102025.40
2023-01-21T04:07:43.155Z,102027.00
2023-01-21T04:10:12.056Z,102028.80
2023-01-21T04:12:40.962Z,102032.20
2023-01-21T04:15:10.704Z,102035.60
2023-01-21T04:17:39.470Z,102033.40
2023-01-21T04:20:10.623Z,102032.00
2023-01-21T04:22:39.178Z,102027.40
2023-01-21T04:25:08.526Z,102018.40
2023-01-21T04:27:37.041Z,102019.00
2023-01-21T04:30:07.098Z,102017.20
2023-01-21T04:32:37.488Z,102016.40
2023-01-21T04:35:07.157Z,102021.80
2023-01-21T04:37:35.919Z,102021.80
2023-01-21T04:40:05.597Z,102029.80
2023-01-21T04:42:34.080Z,102031.60
2023-01-21T04:45:02.765Z,102037.00
2023-01-21T04:47:31.350Z,102028.40
2023-01-21T04:49:59.937Z,102038.00
2023-01-21T04:52:29.952Z,102041.80
2023-01-21T04:54:58.443Z,102041.00
2023-01-21T04:57:27.018Z,102045.00
2023-01-21T04:59:55.813Z,102041.40
2023-01-21T05:02:24.854Z,102046.20
2023-01-21T05:04:53.692Z,102041.00
2023-01-21T05:07:22.277Z,102037.00
2023-01-21T05:09:51.173Z,102037.40
2023-01-21T05:12:19.956Z,102034.60
2023-01-21T05:14:48.646Z,102036.00
2023-01-21T05:17:17.230Z,102030.40
2023-01-21T05:19:45.813Z,102036.20
2023-01-21T05:22:14.403Z,102031.20
2023-01-21T05:24:43.086Z,102039.00
2023-01-21T05:27:11.674Z,102041.60
2023-01-21T05:29:40.670Z,102041.20
2023-01-21T05:32:10.777Z,102048.40
2023-01-21T05:34:39.366Z,102045.80
2023-01-21T05:37:08.093Z,102044.40
2023-01-21T05:39:36.741Z,102047.20
2023-01-21T05:42:05.634Z,102049.60
2023-01-21T05:44:34.215Z,102052.20
2023-01-21T05:47:02.748Z,102050.20
2023-01-21T05:49:31.398Z,102051.80
2023-01-21T05:52:00.099Z,102049.00
2023-01-21T05:54:28.762Z,102046.60
2023-01-21T05:56:57.344Z,102051.60
2023-01-21T05:59:25.935Z,102049.80
2023-01-21T06:01:54.530Z,102050.40
2023-01-21T06:04:28.649Z,102048.20
2023-01-21T06:06:58.023Z,102054.00
2023-01-21T06:09:26.515Z,102050.80
2023-01-21T06:11:54.992Z,102052.60
2023-01-21T06:14:23.680Z,102059.80
2023-01-21T06:16:52.165Z,102059.20
2023-01-21T06:19:20.748Z,102061.40
2023-01-21T06:21:50.076Z,102065.20
2023-01-21T06:24:18.739Z,102064.20
2023-01-21T06:26:47.626Z,102059.80
2023-01-21T06:29:16.329Z,102060.00
2023-01-21T06:31:45.000Z,102063.40
2023-01-21T06:34:14.129Z,102063.20
2023-01-21T06:36:43.202Z,102065.80
2023-01-21T06:39:12.157Z,102064.60
2023-01-21T06:41:40.679Z,102060.40
2023-01-21T06:44:09.666Z,102066.00
2023-01-21T06:46:41.229Z,102066.80
2023-01-21T06:49:12.052Z,102077.20
2023-01-21T06:51:40.856Z,102080.80
2023-01-21T06:54:11.805Z,102078.80
2023-01-21T06:56:43.852Z,102084.20
2023-01-21T06:59:12.332Z,102081.60
2023-01-21T07:01:41.196Z,102079.40
2023-01-21T07:04:10.024Z,102077.20
2023-01-21T07:06:39.486Z,102077.20
2023-01-21T07:09:08.884Z,102081.00
2023-01-21T07:11:37.408Z,102081.40
2023-01-21T07:14:06.091Z,102083.40
2023-01-21T07:16:34.576Z,102077.60
2023-01-21T07:19:03.164Z,102083.80
2023-01-21T07:21:31.957Z,102082.60
2023-01-21T07:24:01.078Z,102080.40
2023-01-21T07:26:29.629Z,102090.20
2023-01-21T07:29:00.357Z,102084.40
2023-01-21T07:31:30.533Z,102085.80
2023-01-21T07:33:59.168Z,102087.00
2023-01-21T07:36:28.188Z,102086.20
2023-01-21T07:38:56.953Z,102086.00
2023-01-21T07:41:27.688Z,102087.80
2023-01-21T07:43:57.397Z,102085.60
2023-01-21T07:46:27.331Z,102093.80
2023-01-21T07:48:56.001Z,102083.80
2023-01-21T07:51:24.633Z,102077.60
2023-01-21T07:53:57.007Z,102076.20
2023-01-21T07:56:27.183Z,102067.80
2023-01-21T07:58:55.764Z,102063.20
2023-01-21T08:01:28.167Z,102054.20
2023-01-21T08:04:00.935Z,102049.60
2023-01-21T08:06:29.513Z,102048.40
2023-01-21T08:08:58.102Z,102048.00
2023-01-21T08:11:27.084Z,102048.80
2023-01-21T08:13:55.776Z,102047.20
2023-01-21T08:16:24.705Z,102043.00
2023-01-21T08:18:54.992Z,102046.00
2023-01-21T08:21:23.999Z,102043.40
2023-01-21T08:23:52.715Z,102038.40
2023-01-21T08:26:22.263Z,102036.20
2023-01-21T08:28:55.465Z,102037.20
2023-01-21T08:31:24.124Z,102034.00
2023-01-21T08:33:53.103Z,102032.20
2023-01-21T08:36:21.880Z,102039.60
2023-01-21T08:39:06.256Z,102029.80
2023-01-21T08:41:35.636Z,102026.00
2023-01-21T08:44:04.532Z,102031.20
2023-01-21T08:46:34.464Z,102023.00
2023-01-21T08:49:03.046Z,102018.80
2023-01-21T08:51:31.713Z,102019.60
2023-01-21T08:54:00.510Z,102020.00
2023-01-21T08:56:29.088Z,102019.20
2023-01-21T08:58:58.247Z,102017.40
2023-01-21T09:01:27.396Z,102014.40
2023-01-21T09:04:01.203Z,102014.40
2023-01-21T09:06:30.721Z,102006.20
2023-01-21T09:08:59.494Z,102001.00
2023-01-21T09:11:30.785Z,102005.00
2023-01-21T09:14:03.635Z,102006.60
2023-01-21T09:16:32.767Z,102006.80
2023-01-21T09:19:02.546Z,101999.80
2023-01-21T09:21:34.804Z,101995.80
2023-01-21T09:24:03.846Z,101992.80
2023-01-21T09:26:32.581Z,101996.20
2023-01-21T09:29:02.167Z,102001.20
2023-01-21T09:31:31.432Z,101991.40
2023-01-21T09:34:04.439Z,101988.80
2023-01-21T09:36:35.104Z,102001.80
2023-01-21T09:39:03.798Z,101995.60
2023-01-21T09:41:41.810Z,101995.60
2023-01-21T09:44:32.512Z,101996.40
2023-01-21T09:47:07.582Z,101988.40
2023-01-21T09:49:47.800Z,101983.60
2023-01-21T09:52:43.523Z,101987.00
2023-01-21T09:55:47.348Z,101979.80
2023-01-21T09:58:32.813Z,101976.60
2023-01-21T10:01:27.195Z,101974.40
2023-01-21T10:04:29.009Z,101972.80
2023-01-21T10:07:20.949Z,101968.60
2023-01-21T10:10:26.552Z,101964.20
2023-01-21T10:13:13.055Z,101959.80
2023-01-21T10:16:13.351Z,101958.20
2023-01-21T10:18:47.706Z,101951.00
2023-01-21T10:21:40.971Z,101947.40
2023-01-21T10:24:18.564Z,101938.80
2023-01-21T10:26:49.558Z,101932.20
2023-01-21T10:29:21.527Z,101932.00
2023-01-21T10:32:17.294Z,101936.60
2023-01-21T10:34:55.300Z,101927.80
2023-01-21T10:38:19.080Z,101924.60
2023-01-21T10:41:21.349Z,101918.00
2023-01-21T10:44:01.909Z,101919.80
2023-01-21T10:46:56.410Z,101918.00
2023-01-21T10:49:44.546Z,101911.60
2023-01-21T10:52:37.815Z,101911.80
2023-01-21T10:55:36.401Z,101912.60
2023-01-21T10:58:33.454Z,101911.00
2023-01-21T11:01:08.422Z,101912.60
2023-01-21T11:03:46.187Z,101913.20
2023-01-21T11:06:18.743Z,101901.60
2023-01-21T11:08:53.392Z,101898.00
2023-01-21T11:11:30.968Z,101899.40
2023-01-21T11:14:00.112Z,101895.60
2023-01-21T11:16:44.135Z,101884.00
2023-01-21T11:19:30.587Z,101879.60
2023-01-21T11:22:21.436Z,101883.00
2023-01-21T11:24:52.910Z,101879.40
2023-01-21T11:27:28.742Z,101870.20
2023-01-21T11:29:57.532Z,101873.00
2023-01-21T11:32:30.282Z,101863.80
2023-01-21T11:35:05.043Z,101863.00
2023-01-21T11:37:35.274Z,101857.60
2023-01-21T11:40:06.314Z,101861.20
2023-01-21T11:42:48.311Z,101862.00
2023-01-21T11:45:39.020Z,101856.60
2023-01-21T11:48:21.934Z,101851.60
2023-01-21T11:50:50.763Z,101848.00
2023-01-21T11:53:20.260Z,101844.20
2023-01-21T11:55:52.658Z,101834.80
2023-01-21T11:58:39.831Z,101827.00
2023-01-21T12:01:21.715Z,101830.20
2023-01-21T12:03:56.485Z,101833.80
2023-01-21T12:06:32.098Z,101821.40
2023-01-21T12:09:08.163Z,101810.00
2023-01-21T12:11:36.842Z,101809.40
2023-01-21T12:14:33.177Z,101811.20
2023-01-21T12:17:24.804Z,101804.00
2023-01-21T12:20:18.107Z,101804.40
2023-01-21T12:23:05.901Z,101791.80
2023-01-21T12:25:47.985Z,101787.20
2023-01-21T12:28:37.478Z,101777.60
2023-01-21T12:31:24.248Z,101771.80
2023-01-21T12:34:03.455Z,101770.40
2023-01-21T12:36:42.145Z,101773.20
2023-01-21T12:39:30.192Z,101761.20
2023-01-21T12:42:07.470Z,101759.00
2023-01-21T12:45:06.374Z,101758.80
2023-01-21T12:48:07.126Z,101754.80
2023-01-21T12:50:41.506Z,101756.60
2023-01-21T12:53:10.010Z,101748.00
2023-01-21T12:56:18.946Z,101746.00
2023-01-21T12:59:02.545Z,101744.60
2023-01-21T13:02:22.106Z,101751.80
2023-01-21T13:05:14.500Z,101744.20
2023-01-21T13:07:57.018Z,101756.40
2023-01-21T13:10:47.716Z,101759.60
2023-01-21T13:13:54.808Z,101759.40
2023-01-21T13:16:26.739Z,101754.60
2023-01-21T13:18:56.844Z,101761.60
2023-01-21T13:21:48.207Z,101758.20
2023-01-21T13:24:34.388Z,101756.60
2023-01-21T13:27:05.951Z,101753.60
2023-01-21T13:29:51.335Z,101747.60
2023-01-21T13:32:26.183Z,101749.60
2023-01-21T13:35:23.950Z,101751.40
2023-01-21T13:38:06.648Z,101754.60
2023-01-21T13:41:01.914Z,101756.80
2023-01-21T13:43:58.814Z,101762.40
2023-01-21T13:46:56.381Z,101755.20
2023-01-21T13:49:34.183Z,101758.60
2023-01-21T13:52:28.667Z,101760.00
2023-01-21T13:55:23.577Z,101760.20
2023-01-21T13:58:49.500Z,101761.00
2023-01-21T14:01:21.654Z,101763.80
2023-01-21T14:04:06.848Z,101759.80
2023-01-21T14:06:53.442Z,101762.20
2023-01-21T14:09:51.519Z,101762.40
2023-01-21T14:12:31.267Z,101766.00
2023-01-21T14:15:53.934Z,101761.20
2023-01-21T14:19:07.368Z,101761.40
2023-01-21T14:22:05.544Z,101761.00
2023-01-21T14:25:05.863Z,101758.20
2023-01-21T14:28:19.205Z,101753.40
2023-01-21T14:31:12.919Z,101754.20
2023-01-21T14:33:46.781Z,101754.40
2023-01-21T14:36:41.986Z,101757.60
2023-01-21T14:39:19.580Z,101760.00
2023-01-21T14:42:10.968Z,101760.00
2023-01-21T14:45:05.395Z,101759.20
2023-01-21T14:47:39.714Z,101754.80
2023-01-21T14:50:09.777Z,101751.60
2023-01-21T14:52:46.055Z,101745.80
2023-01-21T14:55:31.583Z,101751.20
2023-01-21T14:58:01.984Z,101747.60
2023-01-21T15:00:37.007Z,101751.00
2023-01-21T15:03:20.921Z,101749.80
2023-01-21T15:05:52.615Z,101744.80
2023-01-21T15:08:28.836Z,101746.80
2023-01-21T15:11:08.384Z,101747.40
2023-01-21T15:13:40.124Z,101750.20
2023-01-21T15:16:33.795Z,101750.00
2023-01-21T15:19:08.400Z,101752.00
2023-01-21T15:21:59.733Z,101752.60
2023-01-21T15:24:40.764Z,101757.60
2023-01-21T15:27:32.111Z,101756.80
2023-01-21T15:30:06.538Z,101753.20
2023-01-21T15:32:48.038Z,101755.60
2023-01-21T15:35:36.373Z,101757.40
2023-01-21T15:38:15.501Z,101759.80
2023-01-21T15:41:02.210Z,101761.60
2023-01-21T15:43:55.884Z,101751.60
2023-01-21T15:46:39.315Z,101763.60
2023-01-21T15:49:39.338Z,101764.60
2023-01-21T15:52:49.812Z,101766.00
2023-01-21T15:56:03.444Z,101769.00
2023-01-21T15:58:57.232Z,101774.60
2023-01-21T16:01:38.780Z,101771.00
2023-01-21T16:04:21.742Z,101772.40
2023-01-21T16:07:11.645Z,101774.80
2023-01-21T16:10:01.912Z,101775.20
2023-01-21T16:13:37.871Z,101778.40
2023-01-21T16:16:49.771Z,101786.00
2023-01-21T16:19:36.648Z,101786.20
2023-01-21T16:22:10.310Z,101790.00
2023-01-21T16:24:48.820Z,101783.00
2023-01-21T16:27:18.015Z,101792.20
2023-01-21T16:29:46.689Z,101793.20
2023-01-21T16:32:20.091Z,101790.00
2023-01-21T16:34:48.681Z,101791.20
2023-01-21T16:37:24.735Z,101793.00
2023-01-21T16:40:11.960Z,101795.40
2023-01-21T16:42:41.831Z,101797.40
2023-01-21T16:45:26.219Z,101795.20
2023-01-21T16:47:57.628Z,101803.80
2023-01-21T16:50:30.957Z,101809.00
2023-01-21T16:53:07.681Z,101804.20
2023-01-21T16:55:45.441Z,101808.40
2023-01-21T16:58:47.827Z,101808.20
2023-01-21T17:01:18.322Z,101816.80
2023-01-21T17:03:50.314Z,101818.60
2023-01-21T17:06:31.496Z,101821.00
2023-01-21T17:09:07.597Z,101821.40
2023-01-21T17:11:39.006Z,101824.60
2023-01-21T17:14:10.500Z,101829.20
2023-01-21T17:16:41.970Z,101828.20
2023-01-21T17:19:40.099Z,101835.00
2023-01-21T17:22:30.850Z,101839.60
2023-01-21T17:25:22.540Z,101842.20
2023-01-21T17:27:56.121Z,101853.20
2023-01-21T17:30:33.003Z,101853.20
2023-01-21T17:33:06.084Z,101857.20
2023-01-21T17:35:36.107Z,101854.20
2023-01-21T17:38:06.446Z,101864.60
2023-01-21T17:40:45.767Z,101867.60
2023-01-21T17:43:26.218Z,101871.40
2023-01-21T17:45:57.187Z,101870.40
2023-01-21T17:48:34.252Z,101873.40
2023-01-21T17:51:17.643Z,101877.80
2023-01-21T17:53:55.689Z,101881.40
2023-01-21T17:57:00.845Z,101884.80
2023-01-21T17:59:35.498Z,101881.00
2023-01-21T18:02:11.372Z,101881.80
2023-01-21T18:04:41.243Z,101885.20
2023-01-21T18:07:26.616Z,101888.00
2023-01-21T18:10:02.599Z,101892.60
2023-01-21T18:12:31.475Z,101890.40
2023-01-21T18:15:00.455Z,101894.80
2023-01-21T18:17:29.052Z,101891.20
2023-01-21T18:19:58.090Z,101894.60
2023-01-21T18:22:32.067Z,101894.60
2023-01-21T18:25:03.149Z,101900.60
2023-01-21T18:27:31.977Z,101903.80
2023-01-21T18:30:02.150Z,101903.20
2023-01-21T18:32:30.897Z,101908.60
2023-01-21T18:35:00.300Z,101910.00
2023-01-21T18:37:29.290Z,101909.40
2023-01-21T18:39:57.778Z,101913.00
2023-01-21T18:42:27.181Z,101913.20
2023-01-21T18:44:56.061Z,101913.00
2023-01-21T18:47:24.952Z,101919.40
2023-01-21T18:49:54.773Z,101923.00
2023-01-21T18:52:23.456Z,101914.60
2023-01-21T18:54:52.139Z,101921.40
2023-01-21T18:57:23.127Z,101919.00
2023-01-21T18:59:51.667Z,101921.60
2023-01-21T19:02:21.632Z,101922.60
2023-01-21T19:04:50.472Z,101925.00
2023-01-21T19:07:23.999Z,101922.00
2023-01-21T19:09:52.562Z,101920.20
2023-01-21T19:12:23.117Z,101922.00
2023-01-21T19:14:51.774Z,101922.40
2023-01-21T19:17:27.236Z,101926.40
2023-01-21T19:19:56.673Z,101927.80
2023-01-21T19:22:26.130Z,101927.60
2023-01-21T19:24:54.613Z,101931.20
2023-01-21T19:27:32.379Z,101928.00
2023-01-21T19:30:01.425Z,101929.60
2023-01-21T19:32:30.091Z,101929.20
2023-01-21T19:34:58.981Z,101925.80
2023-01-21T19:37:27.983Z,101932.40
2023-01-21T19:39:56.468Z,101929.60
2023-01-21T19:42:25.247Z,101940.60
2023-01-21T19:44:53.733Z,101934.60
2023-01-21T19:47:29.971Z,101943.60
2023-01-21T19:49:58.584Z,101944.60
2023-01-21T19:52:27.168Z,101951.80
2023-01-21T19:54:55.854Z,101949.40
2023-01-21T19:57:24.664Z,101960.40
2023-01-21T19:59:53.745Z,101967.00
2023-01-21T20:02:22.467Z,101972.60
2023-01-21T20:04:52.133Z,101975.00
2023-01-21T20:07:22.367Z,101975.20
2023-01-21T20:09:50.939Z,101985.00
2023-01-21T20:12:19.631Z,101983.40
2023-01-21T20:14:48.317Z,101986.80
2023-01-21T20:17:17.207Z,101988.00
2023-01-21T20:19:45.691Z,101990.20
2023-01-21T20:22:14.493Z,101997.00
2023-01-21T20:24:43.880Z,101999.00
2023-01-21T20:27:14.357Z,101999.60
2023-01-21T20:29:49.534Z,102001.80
2023-01-21T20:32:24.686Z,102008.40
2023-01-21T20:34:53.168Z,102009.00
2023-01-21T20:37:21.857Z,102014.80
2023-01-21T20:39:50.439Z,102018.00
2023-01-21T20:42:19.228Z,102017.80
2023-01-21T20:44:48.019Z,102022.60
2023-01-21T20:47:32.609Z,102026.80
2023-01-21T20:50:18.836Z,102023.40
2023-01-21T20:52:49.201Z,102028.60
2023-01-21T20:55:21.830Z,102030.60
2023-01-21T20:57:50.467Z,102027.60
2023-01-21T21:00:24.036Z,102033.40
2023-01-21T21:02:55.784Z,102034.60
2023-01-21T21:05:27.641Z,102041.00
2023-01-21T21:07:56.383Z,102037.40
2023-01-21T21:10:39.116Z,102043.80
2023-01-21T21:13:08.054Z,102044.00
2023-01-21T21:15:37.921Z,102048.00
2023-01-21T21:18:07.140Z,102048.20
2023-01-21T21:20:39.618Z,102053.60
2023-01-21T21:23:13.401Z,102054.20
2023-01-21T21:25:46.091Z,102053.00
2023-01-21T21:28:18.163Z,102054.60
2023-01-21T21:30:46.969Z,102050.80
2023-01-21T21:33:21.334Z,102054.40
2023-01-21T21:35:50.129Z,102058.40
2023-01-21T21:38:22.730Z,102063.20
2023-01-21T21:40:53.353Z,102063.60
2023-01-21T21:43:36.049Z,102064.80
2023-01-21T21:46:28.395Z,102068.80
2023-01-21T21:48:57.387Z,102069.80
2023-01-21T21:51:26.097Z,102068.60
2023-01-21T21:53:54.873Z,102072.20
2023-01-21T21:56:24.277Z,102076.60
2023-01-21T21:58:52.855Z,102075.80
2023-01-21T22:01:25.531Z,102074.40
2023-01-21T22:04:00.514Z,102074.80
2023-01-21T22:06:30.258Z,102078.80
2023-01-21T22:08:59.271Z,102082.80
2023-01-21T22:11:29.371Z,102078.20
2023-01-21T22:14:04.242Z,102076.20
2023-01-21T22:16:34.315Z,102080.60
2023-01-21T22:19:03.870Z,102082.20
2023-01-21T22:21:34.597Z,102087.40
2023-01-21T22:24:08.803Z,102088.00
2023-01-21T22:26:38.614Z,102089.80
2023-01-21T22:29:07.611Z,102090.20
2023-01-21T22:31:36.592Z,102093.20
2023-01-21T22:34:06.211Z,102097.20
2023-01-21T22:36:35.395Z,102099.40
2023-01-21T22:39:04.610Z,102103.20
2023-01-21T22:41:34.133Z,102104.80
2023-01-21T22:44:02.805Z,102107.40
2023-01-21T22:46:34.367Z,102108.60
2023-01-21T22:49:03.995Z,102112.60
2023-01-21T22:51:33.062Z,102109.40
2023-01-21T22:54:02.377Z,102116.80
2023-01-21T22:56:50.394Z,102122.40
2023-01-21T22:59:20.628Z,102119.40
2023-01-21T23:01:51.347Z,102124.00
2023-01-21T23:04:20.983Z,102126.40
2023-01-21T23:06:55.000Z,102124.80
2023-01-21T23:09:23.975Z,102124.80
2023-01-21T23:11:53.605Z,102122.40
2023-01-21T23:14:22.699Z,102125.80
2023-01-21T23:16:53.853Z,102126.80
2023-01-21T23:19:22.725Z,102129.40
2023-01-21T23:21:52.220Z,102127.00
2023-01-21T23:24:21.532Z,102134.40
2023-01-21T23:26:50.515Z,102128.60
2023-01-21T23:29:19.315Z,102140.20
2023-01-21T23:31:48.063Z,102134.60
2023-01-21T23:34:17.499Z,102143.40
2023-01-21T23:36:46.289Z,102138.20
2023-01-21T23:39:15.208Z,102140.80
2023-01-21T23:41:43.788Z,102138.60
2023-01-21T23:44:13.187Z,102138.00
2023-01-21T23:46:43.530Z,102136.80
2023-01-21T23:49:15.993Z,102137.20
2023-01-21T23:51:47.832Z,102135.20
2023-01-21T23:54:17.236Z,102130.80
2023-01-21T23:56:45.927Z,102129.20
2023-01-21T23:59:14.708Z,102125.40
